createdAt,value
2018-01-23T00:00:22.074Z,3.20
2018-01-23T00:02:49.589Z,3.30
2018-01-23T00:05:17.085Z,3.30
2018-01-23T00:07:44.598Z,3.30
2018-01-23T00:10:12.114Z,3.20
2018-01-23T00:12:39.631Z,3.30
2018-01-23T00:15:07.125Z,3.20
2018-01-23T00:17:34.642Z,3.30
2018-01-23T00:20:02.142Z,3.20
2018-01-23T00:22:29.657Z,3.20
2018-01-23T00:24:57.150Z,3.20
2018-01-23T00:27:24.666Z,3.10
2018-01-23T00:29:52.162Z,3.10
2018-01-23T00:32:19.674Z,3.20
2018-01-23T00:34:47.234Z,3.20
2018-01-23T00:37:14.785Z,3.20
2018-01-23T00:39:42.281Z,3.10
2018-01-23T00:42:09.798Z,3.20
2018-01-23T00:44:37.294Z,3.10
2018-01-23T00:47:04.807Z,3.20
2018-01-23T00:49:33.070Z,3.20
2018-01-23T00:52:01.350Z,3.20
2018-01-23T00:54:29.618Z,3.10
2018-01-23T00:56:57.898Z,3.20
2018-01-23T00:59:26.158Z,3.10
2018-01-23T01:01:53.682Z,3.10
2018-01-23T01:04:21.174Z,3.10
2018-01-23T01:06:48.770Z,3.10
2018-01-23T01:09:16.340Z,3.10
2018-01-23T01:11:43.833Z,3.20
2018-01-23T01:14:11.350Z,3.20
2018-01-23T01:16:38.850Z,3.20
2018-01-23T01:19:06.379Z,3.30
2018-01-23T01:21:33.873Z,3.20
2018-01-23T01:24:01.482Z,3.20
2018-01-23T01:26:29.047Z,3.20
2018-01-23T01:28:56.610Z,3.20
2018-01-23T01:31:24.106Z,3.20
2018-01-23T01:33:51.626Z,3.10
2018-01-23T01:36:19.183Z,3.10
2018-01-23T01:38:46.734Z,3.10
2018-01-23T01:41:14.221Z,3.20
2018-01-23T01:43:41.737Z,3.10
2018-01-23T01:46:10.003Z,2.90
2018-01-23T01:48:50.183Z,2.90
2018-01-23T01:51:17.746Z,2.90
2018-01-23T01:53:45.262Z,2.80
2018-01-23T01:56:12.761Z,2.80
2018-01-23T01:58:40.279Z,2.80
2018-01-23T02:01:07.778Z,2.90
2018-01-23T02:03:35.294Z,2.90
2018-01-23T02:06:02.890Z,2.90
2018-01-23T02:08:30.454Z,2.90
2018-01-23T02:10:57.962Z,2.90
2018-01-23T02:13:25.567Z,2.90
2018-01-23T02:15:53.058Z,2.80
2018-01-23T02:18:20.569Z,2.80
2018-01-23T02:20:48.829Z,2.80
2018-01-23T02:23:16.418Z,2.80
2018-01-23T02:25:43.924Z,2.90
2018-01-23T02:28:11.454Z,3.00
2018-01-23T02:30:38.998Z,3.00
2018-01-23T02:33:06.518Z,2.90
2018-01-23T02:35:34.019Z,3.00
2018-01-23T02:38:01.538Z,3.10
2018-01-23T02:40:30.558Z,3.10
2018-01-23T02:42:58.074Z,3.10
2018-01-23T02:45:25.578Z,3.10
2018-01-23T02:47:53.094Z,3.00
2018-01-23T02:50:20.593Z,2.90
2018-01-23T02:52:48.106Z,3.00
2018-01-23T02:55:16.033Z,3.00
2018-01-23T02:57:43.587Z,2.90
2018-01-23T03:00:11.830Z,2.90
2018-01-23T03:02:40.111Z,2.80
2018-01-23T03:05:08.382Z,2.80
2018-01-23T03:07:36.673Z,2.70
2018-01-23T03:10:04.930Z,2.70
2018-01-23T03:12:32.517Z,2.70
2018-01-23T03:15:00.082Z,2.60
2018-01-23T03:17:27.633Z,2.70
2018-01-23T03:19:55.151Z,2.70
2018-01-23T03:22:22.749Z,2.60
2018-01-23T03:24:50.258Z,2.60
2018-01-23T03:27:17.747Z,2.70
2018-01-23T03:29:46.026Z,2.60
2018-01-23T03:32:14.285Z,2.50
2018-01-23T03:34:41.794Z,2.50
2018-01-23T03:37:09.290Z,2.50
2018-01-23T03:39:36.814Z,2.50
2018-01-23T03:42:04.305Z,2.50
2018-01-23T03:44:31.905Z,2.50
2018-01-23T03:47:00.163Z,2.40
2018-01-23T03:49:28.442Z,2.50
2018-01-23T03:51:56.706Z,2.50
2018-01-23T03:54:24.218Z,2.50
2018-01-23T03:56:51.733Z,2.50
2018-01-23T03:59:20.034Z,2.40
2018-01-23T04:01:47.526Z,2.40
2018-01-23T04:04:15.033Z,2.40
2018-01-23T04:06:43.294Z,2.40
2018-01-23T04:09:10.880Z,2.40
2018-01-23T04:11:38.373Z,2.40
2018-01-23T04:14:05.902Z,2.30
2018-01-23T04:16:33.458Z,2.30
2018-01-23T04:19:00.970Z,2.30
2018-01-23T04:21:28.474Z,2.30
2018-01-23T04:23:55.981Z,2.30
2018-01-23T04:26:23.478Z,2.30
2018-01-23T04:28:51.750Z,2.30
2018-01-23T04:31:20.042Z,2.30
2018-01-23T04:33:47.554Z,2.30
2018-01-23T04:36:15.045Z,2.30
2018-01-23T04:38:43.320Z,2.20
2018-01-23T04:41:11.588Z,2.20
2018-01-23T04:43:39.866Z,2.30
2018-01-23T04:46:08.130Z,2.30
2018-01-23T04:48:35.637Z,2.20
2018-01-23T04:51:03.130Z,2.30
2018-01-23T04:53:30.650Z,2.20
2018-01-23T04:55:58.194Z,2.30
2018-01-23T04:58:25.702Z,2.30
2018-01-23T05:00:53.193Z,2.30
2018-01-23T05:03:21.465Z,2.20
2018-01-23T05:05:49.727Z,2.30
2018-01-23T05:08:17.218Z,2.30
2018-01-23T05:10:44.727Z,2.30
2018-01-23T05:13:12.229Z,2.20
2018-01-23T05:15:39.745Z,2.20
2018-01-23T05:18:07.245Z,2.30
2018-01-23T05:20:35.526Z,2.20
2018-01-23T05:23:03.019Z,2.20
2018-01-23T05:25:30.642Z,2.20
2018-01-23T05:27:58.133Z,2.30
2018-01-23T05:30:25.641Z,2.20
2018-01-23T05:32:53.902Z,2.30
2018-01-23T05:35:21.498Z,2.30
2018-01-23T05:37:49.054Z,2.30
2018-01-23T05:40:16.562Z,2.30
2018-01-23T05:42:44.070Z,2.30
2018-01-23T05:45:11.639Z,2.30
2018-01-23T05:47:39.185Z,2.30
2018-01-23T05:50:06.697Z,2.30
2018-01-23T05:52:34.198Z,2.30
2018-01-23T05:55:02.581Z,2.30
2018-01-23T05:57:30.079Z,2.30
2018-01-23T05:59:57.585Z,2.30
2018-01-23T06:02:25.846Z,2.40
2018-01-23T06:04:53.362Z,2.30
2018-01-23T06:07:20.894Z,2.40
2018-01-23T06:09:48.454Z,2.40
2018-01-23T06:12:15.947Z,2.30
2018-01-23T06:14:43.466Z,2.30
2018-01-23T06:17:11.023Z,2.30
2018-01-23T06:19:38.530Z,2.30
2018-01-23T06:22:06.022Z,2.40
2018-01-23T06:24:34.313Z,2.30
2018-01-23T06:27:02.582Z,2.30
2018-01-23T06:29:30.862Z,2.30
2018-01-23T06:31:59.145Z,2.20
2018-01-23T06:34:26.657Z,2.20
2018-01-23T06:36:54.154Z,2.30
2018-01-23T06:39:22.433Z,2.30
2018-01-23T06:41:49.934Z,2.30
2018-01-23T06:44:17.450Z,2.40
2018-01-23T06:46:44.950Z,2.30
2018-01-23T06:49:12.458Z,2.30
2018-01-23T06:51:40.723Z,2.40
2018-01-23T06:54:09.021Z,2.40
2018-01-23T06:56:36.538Z,2.40
2018-01-23T06:59:04.055Z,2.60
2018-01-23T07:01:31.554Z,2.60
2018-01-23T07:03:59.070Z,2.50
2018-01-23T07:06:26.570Z,2.80
2018-01-23T07:08:54.174Z,3.00
2018-01-23T07:11:21.690Z,3.00
2018-01-23T07:13:49.190Z,3.00
2018-01-23T07:16:16.704Z,3.00
2018-01-23T07:18:44.306Z,3.00
2018-01-23T07:21:11.813Z,3.00
2018-01-23T07:23:39.305Z,3.00
2018-01-23T07:26:07.594Z,3.10
2018-01-23T07:28:35.854Z,3.00
2018-01-23T07:31:04.133Z,3.00
2018-01-23T07:33:32.398Z,3.00
2018-01-23T07:35:59.921Z,3.10
2018-01-23T07:38:27.446Z,3.10
2018-01-23T07:40:55.011Z,3.00
2018-01-23T07:43:22.510Z,3.00
2018-01-23T07:45:50.022Z,3.00
2018-01-23T07:48:17.517Z,3.00
2018-01-23T07:50:45.034Z,3.00
2018-01-23T07:53:12.599Z,3.10
2018-01-23T07:55:40.109Z,3.10
2018-01-23T07:58:07.690Z,3.10
2018-01-23T08:00:35.968Z,3.10
2018-01-23T08:03:04.233Z,3.20
2018-01-23T08:05:31.750Z,3.20
2018-01-23T08:07:59.258Z,3.10
2018-01-23T08:10:27.558Z,3.20
2018-01-23T08:12:55.049Z,3.20
2018-01-23T08:15:22.563Z,3.20
2018-01-23T08:17:50.823Z,3.30
2018-01-23T08:20:19.106Z,3.30
2018-01-23T08:22:47.407Z,3.40
2018-01-23T08:25:14.931Z,3.40
2018-01-23T08:27:42.426Z,3.50
2018-01-23T08:30:09.949Z,3.50
2018-01-23T08:32:38.245Z,3.40
2018-01-23T08:35:06.518Z,3.50
2018-01-23T08:37:34.781Z,3.60
2018-01-23T08:40:03.085Z,3.70
2018-01-23T08:42:30.642Z,3.60
2018-01-23T08:44:58.153Z,3.60
2018-01-23T08:47:25.753Z,3.70
2018-01-23T08:49:53.266Z,3.70
2018-01-23T08:52:20.767Z,3.50
2018-01-23T08:54:48.282Z,3.60
2018-01-23T08:57:15.795Z,3.70
2018-01-23T08:59:43.309Z,3.60
2018-01-23T09:02:10.802Z,3.70
2018-01-23T09:04:38.334Z,3.70
2018-01-23T09:07:06.594Z,3.60
2018-01-23T09:09:34.110Z,3.60
2018-01-23T09:12:01.601Z,3.60
2018-01-23T09:14:29.094Z,3.70
2018-01-23T09:16:57.366Z,3.70
2018-01-23T09:19:25.625Z,3.70
2018-01-23T09:21:53.134Z,3.70
2018-01-23T09:24:20.683Z,3.80
2018-01-23T09:26:48.189Z,3.80
2018-01-23T09:29:15.694Z,3.80
2018-01-23T09:31:43.575Z,3.80
2018-01-23T09:34:11.117Z,3.80
2018-01-23T09:36:38.630Z,3.60
2018-01-23T09:39:06.126Z,3.70
2018-01-23T09:41:34.410Z,4.00
2018-01-23T09:44:01.906Z,4.00
2018-01-23T09:46:29.417Z,3.90
2018-01-23T09:48:57.971Z,4.00
2018-01-23T09:51:25.565Z,4.00
2018-01-23T09:53:53.057Z,4.00
2018-01-23T09:56:20.567Z,4.00
2018-01-23T09:58:48.830Z,4.10
2018-01-23T10:01:16.345Z,4.10
2018-01-23T10:03:45.110Z,4.20
2018-01-23T10:06:12.681Z,4.00
2018-01-23T10:08:40.222Z,4.10
2018-01-23T10:11:07.782Z,4.00
2018-01-23T10:13:35.346Z,4.20
2018-01-23T10:16:02.867Z,4.10
2018-01-23T10:18:30.361Z,4.30
2018-01-23T10:20:57.859Z,4.40
2018-01-23T10:23:25.377Z,4.20
2018-01-23T10:25:52.870Z,4.30
2018-01-23T10:28:20.390Z,4.20
2018-01-23T10:30:47.883Z,4.20
2018-01-23T10:33:15.674Z,4.20
2018-01-23T10:35:43.166Z,4.30
2018-01-23T10:38:11.446Z,4.20
2018-01-23T10:40:38.939Z,4.20
2018-01-23T10:43:06.464Z,4.30
2018-01-23T10:45:33.953Z,4.30
2018-01-23T10:48:01.462Z,4.40
2018-01-23T10:50:29.758Z,4.40
2018-01-23T10:52:57.291Z,4.40
2018-01-23T10:55:25.546Z,4.30
2018-01-23T10:57:53.039Z,4.30
2018-01-23T11:00:20.557Z,4.30
2018-01-23T11:02:48.062Z,4.20
2018-01-23T11:05:15.569Z,4.40
2018-01-23T11:07:43.058Z,4.60
2018-01-23T11:10:11.333Z,4.70
2018-01-23T11:12:39.596Z,4.60
2018-01-23T11:15:07.118Z,4.60
2018-01-23T11:17:34.614Z,4.70
2018-01-23T11:20:02.121Z,4.70
2018-01-23T11:22:29.626Z,4.70
2018-01-23T11:24:57.218Z,4.80
2018-01-23T11:27:24.709Z,4.90
2018-01-23T11:29:52.238Z,4.90
2018-01-23T11:32:19.725Z,4.90
2018-01-23T11:34:47.233Z,5.00
2018-01-23T11:37:15.490Z,4.90
2018-01-23T11:39:42.998Z,4.90
2018-01-23T11:42:10.498Z,5.10
2018-01-23T11:44:38.011Z,5.20
2018-01-23T11:47:05.510Z,5.30
2018-01-23T11:49:33.027Z,5.20
2018-01-23T11:52:00.525Z,5.40
2018-01-23T11:54:28.034Z,5.60
2018-01-23T11:56:55.521Z,5.80
2018-01-23T11:59:23.029Z,5.60
2018-01-23T12:01:51.290Z,5.80
2018-01-23T12:04:18.798Z,5.80
2018-01-23T12:06:46.293Z,5.80
2018-01-23T12:09:13.822Z,5.80
2018-01-23T12:11:41.330Z,5.60
2018-01-23T12:14:08.827Z,5.60
2018-01-23T12:16:36.338Z,5.80
2018-01-23T12:19:03.830Z,5.90
2018-01-23T12:21:31.346Z,5.90
2018-01-23T12:23:58.841Z,5.90
2018-01-23T12:26:27.114Z,6.10
2018-01-23T12:28:55.375Z,6.10
2018-01-23T12:31:23.658Z,6.00
2018-01-23T12:33:51.918Z,6.20
2018-01-23T12:36:19.430Z,6.10
2018-01-23T12:38:46.922Z,6.10
2018-01-23T12:41:14.430Z,6.10
2018-01-23T12:43:41.918Z,6.00
2018-01-23T12:46:09.435Z,6.00
2018-01-23T12:48:36.925Z,5.90
2018-01-23T12:51:04.438Z,5.80
2018-01-23T12:53:31.958Z,5.80
2018-01-23T12:55:59.465Z,5.80
2018-01-23T12:58:27.729Z,5.90
2018-01-23T13:00:56.007Z,5.80
2018-01-23T13:03:24.266Z,5.90
2018-01-23T13:05:51.778Z,5.90
2018-01-23T13:08:19.275Z,5.90
2018-01-23T13:10:46.794Z,5.90
2018-01-23T13:13:14.286Z,5.70
2018-01-23T13:15:41.799Z,5.60
2018-01-23T13:18:09.298Z,5.60
2018-01-23T13:20:36.807Z,5.60
2018-01-23T13:23:04.310Z,5.60
2018-01-23T13:25:31.822Z,5.50
2018-01-23T13:27:59.322Z,5.60
2018-01-23T13:30:26.831Z,5.60
2018-01-23T13:32:54.338Z,5.60
2018-01-23T13:35:21.850Z,5.90
2018-01-23T13:37:49.342Z,5.80
2018-01-23T13:40:16.863Z,5.80
2018-01-23T13:42:44.353Z,5.80
2018-01-23T13:45:11.870Z,5.60
2018-01-23T13:47:40.133Z,5.50
2018-01-23T13:50:07.641Z,5.50
2018-01-23T13:52:35.133Z,5.60
2018-01-23T13:55:02.646Z,5.60
2018-01-23T13:57:30.137Z,5.60
2018-01-23T13:59:57.641Z,5.80
2018-01-23T14:02:25.902Z,5.60
2018-01-23T14:04:54.163Z,5.40
2018-01-23T14:07:21.670Z,5.40
2018-01-23T14:09:49.164Z,5.50
2018-01-23T14:12:16.680Z,5.50
2018-01-23T14:14:44.182Z,5.40
2018-01-23T14:17:11.693Z,5.30
2018-01-23T14:19:39.186Z,5.20
2018-01-23T14:22:06.723Z,5.10
2018-01-23T14:24:34.222Z,5.00
2018-01-23T14:27:02.090Z,5.00
2018-01-23T14:29:29.583Z,5.10
2018-01-23T14:34:21.190Z,5.20
2018-01-23T14:36:48.697Z,5.00
2018-01-23T14:39:16.186Z,5.00
2018-01-23T14:41:43.696Z,5.00
2018-01-23T14:44:11.206Z,5.00
2018-01-23T14:46:38.718Z,5.00
2018-01-23T14:49:06.218Z,5.10
2018-01-23T14:51:33.726Z,5.20
2018-01-23T14:54:01.226Z,5.20
2018-01-23T14:56:28.737Z,5.30
2018-01-23T14:58:56.998Z,5.20
2018-01-23T15:01:25.282Z,5.20
2018-01-23T15:03:53.570Z,5.10
2018-01-23T15:06:21.130Z,5.10
2018-01-23T15:08:48.634Z,5.30
2018-01-23T15:11:16.146Z,5.10
2018-01-23T15:13:43.650Z,4.90
2018-01-23T15:16:11.162Z,4.90
2018-01-23T15:18:38.722Z,4.70
2018-01-23T15:21:06.242Z,4.60
2018-01-23T15:23:33.837Z,4.70
2018-01-23T15:26:02.122Z,4.60
2018-01-23T15:28:29.618Z,4.60
2018-01-23T15:30:57.130Z,4.50
2018-01-23T15:33:24.700Z,4.50
2018-01-23T15:35:52.202Z,4.50
2018-01-23T15:38:19.805Z,4.40
2018-01-23T15:40:48.070Z,4.40
2018-01-23T15:43:16.345Z,4.30
2018-01-23T15:45:44.606Z,4.30
2018-01-23T15:48:12.113Z,4.20
2018-01-23T15:50:39.614Z,4.30
2018-01-23T15:53:07.213Z,4.30
2018-01-23T15:55:34.718Z,4.20
2018-01-23T15:58:02.338Z,4.10
2018-01-23T16:00:29.890Z,4.20
2018-01-23T16:02:57.464Z,4.20
2018-01-23T16:05:24.958Z,4.10
2018-01-23T16:07:52.570Z,4.10
2018-01-23T16:10:20.132Z,4.10
2018-01-23T16:12:47.645Z,4.30
2018-01-23T16:15:15.142Z,4.30
2018-01-23T16:17:42.702Z,4.10
2018-01-23T16:20:10.191Z,4.10
2018-01-23T16:22:37.710Z,4.20
2018-01-23T16:25:05.974Z,4.10
2018-01-23T16:27:34.270Z,4.10
2018-01-23T16:30:01.840Z,4.10
2018-01-23T16:32:29.389Z,4.10
2018-01-23T16:34:56.940Z,4.10
2018-01-23T16:37:25.946Z,4.10
2018-01-23T16:39:53.447Z,4.10
2018-01-23T16:42:20.957Z,4.10
2018-01-23T16:44:48.458Z,4.10
2018-01-23T16:47:15.973Z,4.10
2018-01-23T16:49:43.479Z,4.10
2018-01-23T16:52:10.999Z,3.90
2018-01-23T16:54:38.499Z,3.80
2018-01-23T16:57:06.022Z,3.70
2018-01-23T16:59:33.517Z,3.70
2018-01-23T17:02:01.031Z,3.70
2018-01-23T17:04:28.529Z,3.70
2018-01-23T17:06:56.042Z,3.80
2018-01-23T17:09:23.534Z,3.80
2018-01-23T17:11:51.058Z,3.60
2018-01-23T17:14:18.566Z,3.50
2018-01-23T17:16:46.078Z,3.40
2018-01-23T17:19:13.571Z,3.30
2018-01-23T17:21:41.089Z,3.30
2018-01-23T17:24:08.582Z,3.20
2018-01-23T17:26:36.080Z,3.10
2018-01-23T17:29:03.660Z,3.00
2018-01-23T17:31:31.162Z,2.90
2018-01-23T17:33:58.682Z,2.70
2018-01-23T17:36:26.191Z,2.60
2018-01-23T17:38:53.706Z,2.50
2018-01-23T17:41:21.206Z,2.50
2018-01-23T17:43:48.730Z,2.50
2018-01-23T17:46:16.226Z,2.50
2018-01-23T17:48:43.741Z,2.50
2018-01-23T17:51:11.254Z,2.40
2018-01-23T17:53:38.769Z,2.40
2018-01-23T17:56:06.265Z,2.40
2018-01-23T17:58:33.782Z,2.40
2018-01-23T18:01:01.276Z,2.30
2018-01-23T18:03:29.624Z,2.30
2018-01-23T18:05:57.118Z,2.30
2018-01-23T18:08:24.637Z,2.30
2018-01-23T18:10:52.147Z,2.30
2018-01-23T18:13:20.477Z,2.40
2018-01-23T18:15:47.978Z,2.40
2018-01-23T18:18:16.262Z,2.40
2018-01-23T18:20:44.517Z,2.50
2018-01-23T18:23:12.081Z,2.50
2018-01-23T18:25:39.578Z,2.50
2018-01-23T18:28:07.148Z,2.50
2018-01-23T18:30:34.641Z,2.50
2018-01-23T18:33:02.150Z,2.50
2018-01-23T18:35:29.641Z,2.50
2018-01-23T18:37:57.153Z,2.40
2018-01-23T18:40:25.409Z,2.60
2018-01-23T18:42:52.918Z,2.60
2018-01-23T18:45:20.412Z,2.70
2018-01-23T18:47:47.937Z,2.70
2018-01-23T18:50:15.485Z,2.80
2018-01-23T18:52:43.002Z,2.80
2018-01-23T18:55:11.266Z,3.10
2018-01-23T18:57:38.829Z,3.10
2018-01-23T19:00:06.373Z,2.90
2018-01-23T19:02:33.998Z,2.80
2018-01-23T19:05:01.462Z,2.70
2018-01-23T19:07:28.966Z,2.70
2018-01-23T19:09:56.526Z,2.70
2018-01-23T19:12:24.785Z,2.60
2018-01-23T19:14:52.300Z,2.60
2018-01-23T19:17:19.849Z,2.60
2018-01-23T19:19:47.357Z,2.60
2018-01-23T19:22:14.906Z,2.40
2018-01-23T19:24:42.414Z,2.30
2018-01-23T19:27:10.734Z,2.00
2018-01-23T19:29:38.292Z,2.00
2018-01-23T19:32:05.838Z,1.90
2018-01-23T19:34:33.350Z,1.90
2018-01-23T19:37:01.622Z,1.80
2018-01-23T19:39:29.149Z,1.80
2018-01-23T19:41:56.693Z,1.80
2018-01-23T19:44:24.257Z,1.80
2018-01-23T19:46:51.805Z,1.80
2018-01-23T19:49:19.317Z,1.70
2018-01-23T19:51:48.178Z,1.70
2018-01-23T19:54:15.741Z,1.60
2018-01-23T19:56:43.237Z,1.60
2018-01-23T19:59:11.574Z,1.60
2018-01-23T20:01:39.112Z,1.60
2018-01-23T20:04:06.622Z,1.60
2018-01-23T20:06:34.899Z,1.50
2018-01-23T20:09:03.176Z,1.50
2018-01-23T20:11:31.458Z,1.50
2018-01-23T20:13:59.730Z,1.40
2018-01-23T20:16:28.093Z,1.40
2018-01-23T20:18:55.637Z,1.40
2018-01-23T20:21:23.288Z,1.40
2018-01-23T20:23:50.833Z,1.30
2018-01-23T20:26:18.445Z,1.30
2018-01-23T20:28:46.022Z,1.20
2018-01-23T20:31:13.637Z,1.20
2018-01-23T20:33:41.201Z,1.20
2018-01-23T20:36:08.846Z,1.20
2018-01-23T20:38:36.422Z,1.20
2018-01-23T20:41:04.030Z,1.10
2018-01-23T20:43:31.638Z,1.10
2018-01-23T20:45:59.214Z,1.20
2018-01-23T20:48:26.807Z,1.20
2018-01-23T20:50:54.369Z,1.10
2018-01-23T20:53:21.915Z,1.10
2018-01-23T20:55:50.248Z,1.00
2018-01-23T20:58:17.742Z,1.00
2018-01-23T21:00:46.093Z,0.90
2018-01-23T21:03:13.641Z,0.90
2018-01-23T21:05:41.135Z,0.90
2018-01-23T21:08:09.462Z,0.90
2018-01-23T21:10:37.022Z,0.80
2018-01-23T21:13:04.595Z,0.70
2018-01-23T21:15:32.090Z,0.60
2018-01-23T21:18:00.421Z,0.50
2018-01-23T21:20:27.969Z,0.50
2018-01-23T21:22:55.490Z,0.50
2018-01-23T21:25:23.821Z,0.50
2018-01-23T21:27:51.338Z,0.50
2018-01-23T21:30:19.024Z,0.60
2018-01-23T21:32:47.274Z,0.60
2018-01-23T21:35:14.821Z,0.60
2018-01-23T21:37:43.113Z,0.50
2018-01-23T21:40:10.669Z,0.40
2018-01-23T21:42:38.193Z,0.50
2018-01-23T21:45:05.698Z,0.50
2018-01-23T21:47:33.281Z,0.50
2018-01-23T21:50:00.777Z,0.40
2018-01-23T21:52:28.386Z,0.50
2018-01-23T21:54:55.893Z,0.50
2018-01-23T21:57:23.409Z,0.50
2018-01-23T21:59:50.906Z,0.50
2018-01-23T22:02:18.446Z,0.40
2018-01-23T22:04:45.958Z,0.30
2018-01-23T22:07:13.454Z,0.30
2018-01-23T22:09:40.965Z,0.30
2018-01-23T22:12:09.279Z,0.30
2018-01-23T22:14:36.819Z,0.30
2018-01-23T22:17:04.360Z,0.30
2018-01-23T22:19:31.961Z,0.30
2018-01-23T22:21:59.467Z,0.40
2018-01-23T22:24:27.750Z,0.40
2018-01-23T22:26:56.019Z,0.40
2018-01-23T22:29:24.348Z,0.30
2018-01-23T22:31:51.888Z,0.30
2018-01-23T22:34:19.410Z,0.30
2018-01-23T22:36:47.665Z,0.20
2018-01-23T22:39:15.188Z,0.20
2018-01-23T22:41:42.717Z,0.10
2018-01-23T22:44:10.249Z,0.10
2018-01-23T22:46:37.741Z,0.00
2018-01-23T22:49:05.247Z,0.00
2018-01-23T22:51:32.757Z,0.00
2018-01-23T22:54:00.318Z,-0.10
2018-01-23T22:56:27.876Z,-0.10
2018-01-23T22:58:55.386Z,-0.10
2018-01-23T23:01:22.902Z,-0.10
2018-01-23T23:03:50.455Z,-0.10
2018-01-23T23:06:17.978Z,-0.10
2018-01-23T23:08:45.475Z,-0.20
2018-01-23T23:11:13.027Z,-0.20
2018-01-23T23:13:40.526Z,-0.10
2018-01-23T23:16:08.043Z,-0.10
2018-01-23T23:18:35.599Z,-0.20
2018-01-23T23:21:03.170Z,-0.20
2018-01-23T23:23:30.667Z,-0.10
2018-01-23T23:25:58.186Z,-0.20
2018-01-23T23:28:25.694Z,-0.10
2018-01-23T23:30:53.294Z,-0.10
2018-01-23T23:33:20.799Z,0.00
2018-01-23T23:35:48.359Z,0.00
2018-01-23T23:38:15.863Z,0.10
2018-01-23T23:40:43.353Z,0.00
2018-01-23T23:43:10.877Z,0.10
2018-01-23T23:45:39.134Z,0.00
2018-01-23T23:48:07.414Z,0.00
2018-01-23T23:50:35.683Z,-0.10
2018-01-23T23:53:03.979Z,-0.10
2018-01-23T23:55:32.238Z,-0.10
2018-01-23T23:58:00.523Z,-0.10
